»·PEaware :: N101WS KCMA-KSBA

N101WS :: KCMA-KSBA

FLIGHT INFORMATION

Flight Status: Arrived
Operator: Privately registered:
United States
More flights under this callsign
Pilot: Mark K. (33451)
Aircraft: CESSNA 172 SKYHAWK
(C172)
More flights by this aircraft type
Origin: KCMA Camarillo
United States
Destination: KSBA Santa Barbara Mun
United States
More flights between these airports :: More routes between these airports
Route: VTU282 KWANG
File this flight plan on PilotEdge
Remarks: REQ VECTORS TO GOLET
Altitude:
(Current/Filed)
4,000ft
Speed:
(Current/Filed)
105kts
Departed: 06-Feb-21 09:59 PM
Arrived: 06-Feb-21 10:37 PM
Distance/Time
Traveled:
40nm/0:37
Distance/Time
To Go:
Arrived

Flight Plot

Page will automatically refresh every two minutes.


Map Options




Map Legend


Flown Route
Filed Route
Departure Airport
Arrival Airport
Navaid (VOR, NDB)
Fix

Horizontal Profiles

Position Reports

Time Latitude Longitude Heading Altitude Ground
Speed
06-Feb-21 21:46 34.210229 -119.080315 92 76ft 0kts
06-Feb-21 21:46 34.210229 -119.080315 92 76ft 0kts
06-Feb-21 21:47 34.210229 -119.080315 92 76ft 0kts
06-Feb-21 21:48 34.210229 -119.080315 92 76ft 0kts
06-Feb-21 21:49 34.210229 -119.080315 92 76ft 0kts
06-Feb-21 21:50 34.210229 -119.080315 92 76ft 0kts
06-Feb-21 21:51 34.210229 -119.080315 92 76ft 0kts
06-Feb-21 21:52 34.210229 -119.080315 92 76ft 0kts
06-Feb-21 21:53 34.210228 -119.080168 89 76ft 0kts
06-Feb-21 21:54 34.210922 -119.083069 271 76ft 14kts
06-Feb-21 21:55 34.212774 -119.084623 359 76ft 0kts
06-Feb-21 21:56 34.212774 -119.084623 359 76ft 0kts
06-Feb-21 21:57 34.213579 -119.084786 308 76ft 6kts
06-Feb-21 21:58 34.214601 -119.107542 273 495ft 97kts
06-Feb-21 21:59 34.218659 -119.139880 285 1358ft 98kts
06-Feb-21 22:00 34.227449 -119.173531 285 1962ft 107kts
06-Feb-21 22:01 34.236499 -119.208149 285 2550ft 107kts
06-Feb-21 22:02 34.245532 -119.242599 285 3136ft 107kts
06-Feb-21 22:03 34.254547 -119.276884 285 3719ft 107kts
06-Feb-21 22:04 34.264065 -119.313311 285 3993ft 116kts
06-Feb-21 22:05 34.274134 -119.352129 286 3988ft 122kts
06-Feb-21 22:06 34.284281 -119.391277 286 3978ft 122kts
06-Feb-21 22:07 34.294477 -119.430603 286 3968ft 122kts
06-Feb-21 22:08 34.304656 -119.469847 286 3958ft 122kts
06-Feb-21 22:09 34.314852 -119.509141 286 3948ft 122kts
06-Feb-21 22:10 34.312064 -119.549282 260 3985ft 120kts
06-Feb-21 22:11 34.307934 -119.589880 262 3986ft 122kts
06-Feb-21 22:12 34.303961 -119.630730 262 3976ft 122kts
06-Feb-21 22:13 34.299969 -119.671566 261 3965ft 122kts
06-Feb-21 22:14 34.295955 -119.712506 261 3955ft 122kts
06-Feb-21 22:15 34.291954 -119.753160 261 3986ft 120kts
06-Feb-21 22:16 34.287928 -119.793922 261 3987ft 122kts
06-Feb-21 22:17 34.283889 -119.834734 261 3977ft 122kts
06-Feb-21 22:18 34.280047 -119.875627 262 3966ft 122kts
06-Feb-21 22:19 34.276713 -119.916639 262 3956ft 122kts
06-Feb-21 22:20 34.273380 -119.957613 262 3946ft 122kts
06-Feb-21 22:21 34.270044 -119.998483 262 3967ft 120kts
06-Feb-21 22:22 34.266713 -120.038965 262 4006ft 122kts
06-Feb-21 22:23 34.269158 -120.078127 313 3954ft 120kts
06-Feb-21 22:24 34.301205 -120.087180 357 3665ft 116kts
06-Feb-21 22:25 34.331566 -120.087752 358 3151ft 107kts
06-Feb-21 22:26 34.361367 -120.088229 358 2716ft 104kts
06-Feb-21 22:27 34.389105 -120.088749 357 2832ft 100kts
06-Feb-21 22:28 34.416585 -120.084569 46 2808ft 104kts
06-Feb-21 22:29 34.423299 -120.051136 86 2790ft 104kts
06-Feb-21 22:30 34.424168 -120.016115 87 2784ft 103kts
06-Feb-21 22:31 34.424852 -119.980685 88 2257ft 103kts
06-Feb-21 22:32 34.425589 -119.945839 88 1558ft 103kts
06-Feb-21 22:33 34.426242 -119.911798 87 894ft 95kts
06-Feb-21 22:34 34.426939 -119.884525 87 491ft 66kts
06-Feb-21 22:35 34.427375 -119.863378 86 113ft 62kts
06-Feb-21 22:36 34.427433 -119.846876 107 14ft 26kts
06-Feb-21 22:37 34.426471 -119.854129 296 14ft 10kts
06-Feb-21 22:38 34.426594 -119.854300 321 14ft 0kts
06-Feb-21 22:39 34.426594 -119.854300 321 14ft 0kts
06-Feb-21 22:40 34.426594 -119.854300 321 14ft 0kts
06-Feb-21 22:41 34.426594 -119.854300 321 14ft 0kts
06-Feb-21 22:42 34.426594 -119.854300 321 14ft 0kts
06-Feb-21 22:43 34.426594 -119.854300 321 14ft 0kts
06-Feb-21 22:44 34.426594 -119.854300 321 14ft 0kts
06-Feb-21 22:45 34.426594 -119.854300 321 14ft 0kts

Navigation Log

Ident Type
Flight plan parsing failed, navigation log unavailable